createdAt,value
2022-10-01T00:02:12.183Z,100457.25
2022-10-01T00:04:41.218Z,100451.44
2022-10-01T00:07:15.168Z,100443.03
2022-10-01T00:09:44.291Z,100444.44
2022-10-01T00:12:16.567Z,100443.03
2022-10-01T00:14:45.569Z,100436.13
2022-10-01T00:17:14.496Z,100435.03
2022-10-01T00:19:43.415Z,100433.63
2022-10-01T00:22:13.664Z,100427.00
2022-10-01T00:24:42.581Z,100428.78
2022-10-01T00:27:12.346Z,100427.56
2022-10-01T00:29:45.312Z,100417.38
2022-10-01T00:32:14.375Z,100416.06
2022-10-01T00:34:43.388Z,100412.03
2022-10-01T00:37:13.883Z,100407.31
2022-10-01T00:39:42.818Z,100414.19
2022-10-01T00:42:19.437Z,100401.13
2022-10-01T00:44:49.218Z,100400.28
2022-10-01T00:47:27.029Z,100393.41
2022-10-01T00:50:02.136Z,100391.88
2022-10-01T00:52:33.891Z,100385.72
2022-10-01T00:55:07.794Z,100381.16
2022-10-01T00:57:36.858Z,100378.31
2022-10-01T01:00:10.786Z,100374.88
2022-10-01T01:02:40.903Z,100365.94
2022-10-01T01:05:13.496Z,100367.16
2022-10-01T01:07:48.088Z,100363.22
2022-10-01T01:10:20.380Z,100368.56
2022-10-01T01:13:02.688Z,100371.34
2022-10-01T01:15:37.311Z,100366.56
2022-10-01T01:18:11.339Z,100360.56
2022-10-01T01:20:51.800Z,100349.28
2022-10-01T01:23:42.191Z,100347.94
2022-10-01T01:26:20.393Z,100338.56
2022-10-01T01:28:53.625Z,100340.09
2022-10-01T01:31:30.277Z,100330.63
2022-10-01T01:34:01.299Z,100331.31
2022-10-01T01:36:35.548Z,100316.88
2022-10-01T01:39:07.010Z,100319.13
2022-10-01T01:41:38.485Z,100318.44
2022-10-01T01:44:13.198Z,100312.22
2022-10-01T01:46:46.223Z,100312.22
2022-10-01T01:49:17.524Z,100320.78
2022-10-01T01:51:52.094Z,100304.69
2022-10-01T01:54:22.157Z,100301.25
2022-10-01T01:56:51.973Z,100305.75
2022-10-01T01:59:22.594Z,100295.69
2022-10-01T02:01:51.767Z,100285.94
2022-10-01T02:04:25.670Z,100283.00
2022-10-01T02:07:16.131Z,100280.16
2022-10-01T02:09:53.326Z,100274.78
2022-10-01T02:12:33.502Z,100268.97
2022-10-01T02:15:11.263Z,100261.84
2022-10-01T02:17:51.338Z,100253.00
2022-10-01T02:20:29.230Z,100247.09
2022-10-01T02:23:03.594Z,100235.97
2022-10-01T02:25:40.619Z,100249.31
2022-10-01T02:28:12.888Z,100231.44
2022-10-01T02:30:45.009Z,100231.03
2022-10-01T02:33:16.322Z,100222.63
2022-10-01T02:35:47.874Z,100217.81
2022-10-01T02:38:19.110Z,100219.31
2022-10-01T02:40:51.171Z,100216.16
2022-10-01T02:43:23.242Z,100206.94
2022-10-01T02:46:01.034Z,100210.81
2022-10-01T02:48:30.769Z,100206.25
2022-10-01T02:51:07.454Z,100203.91
2022-10-01T02:53:42.208Z,100200.75
2022-10-01T02:56:14.698Z,100199.38
2022-10-01T02:58:42.904Z,100198.81
2022-10-01T03:01:13.302Z,100186.56
2022-10-01T03:03:43.045Z,100179.97
2022-10-01T03:06:12.077Z,100185.03
2022-10-01T03:08:41.204Z,100174.31
2022-10-01T03:11:10.425Z,100170.44
2022-10-01T03:13:39.676Z,100174.56
2022-10-01T03:16:08.780Z,100171.25
2022-10-01T03:18:39.330Z,100164.38
2022-10-01T03:21:08.375Z,100163.41
2022-10-01T03:23:37.338Z,100158.28
2022-10-01T03:26:06.374Z,100152.50
2022-10-01T03:28:36.141Z,100148.22
2022-10-01T03:31:09.392Z,100160.06
2022-10-01T03:33:41.203Z,100148.94
2022-10-01T03:36:10.153Z,100151.63
2022-10-01T03:38:39.106Z,100146.31
2022-10-01T03:41:08.109Z,100143.25
2022-10-01T03:43:37.303Z,100148.75
2022-10-01T03:46:06.438Z,100149.84
2022-10-01T03:48:35.608Z,100144.91
2022-10-01T03:51:06.474Z,100131.38
2022-10-01T03:53:35.622Z,100140.91
2022-10-01T03:56:04.757Z,100133.41
2022-10-01T03:58:33.849Z,100138.28
2022-10-01T04:01:02.845Z,100141.03
2022-10-01T04:03:31.838Z,100142.00
2022-10-01T04:06:00.779Z,100144.91
2022-10-01T04:08:31.114Z,100135.84
2022-10-01T04:11:00.928Z,100133.88
2022-10-01T04:13:31.259Z,100140.66
2022-10-01T04:16:00.342Z,100135.28
2022-10-01T04:18:29.547Z,100131.31
2022-10-01T04:20:58.785Z,100119.63
2022-10-01T04:23:28.145Z,100116.34
2022-10-01T04:26:00.710Z,100108.47
2022-10-01T04:28:30.388Z,100104.06
2022-10-01T04:31:13.501Z,100099.94
2022-10-01T04:33:42.959Z,100091.81
2022-10-01T04:36:11.998Z,100088.81
2022-10-01T04:38:40.956Z,100084.25
2022-10-01T04:41:11.338Z,100081.06
2022-10-01T04:43:40.399Z,100076.69
2022-10-01T04:46:09.370Z,100062.50
2022-10-01T04:48:38.357Z,100053.97
2022-10-01T04:51:07.438Z,100054.78
2022-10-01T04:53:36.409Z,100049.72
2022-10-01T04:56:05.450Z,100037.72
2022-10-01T04:58:35.724Z,100036.63
2022-10-01T05:01:04.776Z,100018.75
2022-10-01T05:03:34.358Z,100012.81
2022-10-01T05:06:03.750Z,100008.56
2022-10-01T05:08:32.681Z,100003.59
2022-10-01T05:11:01.770Z,100003.59
2022-10-01T05:13:31.814Z,99993.84
2022-10-01T05:16:03.645Z,99987.38
2022-10-01T05:18:32.673Z,99978.44
2022-10-01T05:21:06.541Z,99973.50
2022-10-01T05:23:35.798Z,99969.91
2022-10-01T05:26:05.846Z,99962.88
2022-10-01T05:28:35.755Z,99969.06
2022-10-01T05:31:06.948Z,99959.97
2022-10-01T05:33:35.973Z,99957.53
2022-10-01T05:36:07.293Z,99959.56
2022-10-01T05:38:37.304Z,99961.63
2022-10-01T05:41:06.724Z,99960.69
2022-10-01T05:43:36.240Z,99961.50
2022-10-01T05:46:07.419Z,99948.97
2022-10-01T05:48:37.020Z,99947.19
2022-10-01T05:51:08.331Z,99952.97
2022-10-01T05:53:38.377Z,99943.88
2022-10-01T05:56:08.303Z,99951.72
2022-10-01T05:58:37.402Z,99949.09
2022-10-01T06:01:07.780Z,99938.81
2022-10-01T06:03:36.713Z,99940.03
2022-10-01T06:06:05.799Z,99935.75
2022-10-01T06:08:35.794Z,99938.94
2022-10-01T06:11:05.552Z,99929.72
2022-10-01T06:13:36.340Z,99937.56
2022-10-01T06:16:06.863Z,99938.38
2022-10-01T06:18:35.855Z,99931.22
2022-10-01T06:21:05.128Z,99929.44
2022-10-01T06:23:34.643Z,99920.22
2022-10-01T06:26:06.503Z,99914.69
2022-10-01T06:28:35.407Z,99921.06
2022-10-01T06:31:05.750Z,99921.19
2022-10-01T06:33:36.397Z,99913.03
2022-10-01T06:36:06.217Z,99907.97
2022-10-01T06:38:35.133Z,99905.19
2022-10-01T06:41:05.173Z,99902.59
2022-10-01T06:43:34.725Z,99896.53
2022-10-01T06:46:04.658Z,99891.03
2022-10-01T06:48:36.579Z,99896.53
2022-10-01T06:51:06.658Z,99894.75
2022-10-01T06:53:36.011Z,99896.53
2022-10-01T06:56:08.878Z,99897.22
2022-10-01T06:58:38.297Z,99894.63
2022-10-01T07:01:07.296Z,99896.81
2022-10-01T07:03:37.634Z,99887.06
2022-10-01T07:06:08.588Z,99883.03
2022-10-01T07:08:37.776Z,99878.22
2022-10-01T07:11:07.024Z,99878.22
2022-10-01T07:13:35.998Z,99867.50
2022-10-01T07:16:05.416Z,99881.66
2022-10-01T07:18:34.706Z,99868.19
2022-10-01T07:21:05.310Z,99868.03
2022-10-01T07:23:34.282Z,99865.13
2022-10-01T07:26:08.642Z,99869.53
2022-10-01T07:28:37.586Z,99867.09
2022-10-01T07:31:11.209Z,99860.19
2022-10-01T07:33:40.990Z,99859.25
2022-10-01T07:36:13.390Z,99859.09
2022-10-01T07:38:43.499Z,99853.31
2022-10-01T07:41:12.475Z,99852.88
2022-10-01T07:43:42.291Z,99848.50
2022-10-01T07:46:11.525Z,99849.44
2022-10-01T07:48:41.211Z,99843.94
2022-10-01T07:51:11.615Z,99842.38
2022-10-01T07:53:40.568Z,99830.28
2022-10-01T07:56:09.564Z,99830.81
2022-10-01T07:58:38.652Z,99812.22
2022-10-01T08:01:08.053Z,99815.38
2022-10-01T08:03:37.275Z,99806.25
2022-10-01T08:06:06.818Z,99806.69
2022-10-01T08:08:37.399Z,99801.47
2022-10-01T08:11:07.612Z,99794.13
2022-10-01T08:13:37.226Z,99794.84
2022-10-01T08:16:07.982Z,99791.09
2022-10-01T08:18:38.238Z,99790.13
2022-10-01T08:21:07.316Z,99797.69
2022-10-01T08:23:37.809Z,99805.53
2022-10-01T08:26:09.322Z,99798.50
2022-10-01T08:28:38.325Z,99800.16
2022-10-01T08:31:09.938Z,99792.97
2022-10-01T08:33:39.895Z,99785.13
2022-10-01T08:36:09.266Z,99787.31
2022-10-01T08:38:42.450Z,99781.75
2022-10-01T08:41:24.219Z,99789.19
2022-10-01T08:43:55.196Z,99783.94
2022-10-01T08:46:28.798Z,99779.09
2022-10-01T08:49:03.315Z,99789.25
2022-10-01T08:51:39.354Z,99779.75
2022-10-01T08:54:30.839Z,99788.97
2022-10-01T08:57:02.558Z,99783.28
2022-10-01T08:59:40.230Z,99786.59
2022-10-01T09:02:19.654Z,99779.56
2022-10-01T09:04:49.971Z,99782.72
2022-10-01T09:07:34.145Z,99781.72
2022-10-01T09:10:21.213Z,99773.06
2022-10-01T09:13:07.293Z,99775.91
2022-10-01T09:15:43.413Z,99781.50
2022-10-01T09:18:22.431Z,99782.19
2022-10-01T09:20:56.882Z,99772.38
2022-10-01T09:23:32.537Z,99773.88
2022-10-01T09:26:03.319Z,99779.94
2022-10-01T09:28:34.367Z,99781.28
2022-10-01T09:31:13.142Z,99781.28
2022-10-01T09:33:45.265Z,99779.19
2022-10-01T09:36:24.715Z,99779.03
2022-10-01T09:39:06.358Z,99782.19
2022-10-01T09:41:36.962Z,99791.06
2022-10-01T09:44:07.266Z,99787.84
2022-10-01T09:46:36.433Z,99780.34
2022-10-01T09:49:12.826Z,99777.41
2022-10-01T09:51:45.772Z,99781.75
2022-10-01T09:54:21.408Z,99786.44
2022-10-01T09:56:59.295Z,99787.66
2022-10-01T09:59:35.194Z,99786.69
2022-10-01T10:02:08.471Z,99782.78
2022-10-01T10:04:37.696Z,99784.44
2022-10-01T10:07:07.472Z,99783.16
2022-10-01T10:09:37.707Z,99781.63
2022-10-01T10:12:11.059Z,99776.41
2022-10-01T10:14:41.594Z,99789.25
2022-10-01T10:17:16.979Z,99786.19
2022-10-01T10:19:51.567Z,99792.94
2022-10-01T10:22:25.681Z,99785.25
2022-10-01T10:24:57.825Z,99798.53
2022-10-01T10:27:30.376Z,99801.03
2022-10-01T10:30:08.602Z,99793.03
2022-10-01T10:32:37.939Z,99802.38
2022-10-01T10:35:13.253Z,99801.88
2022-10-01T10:37:49.370Z,99809.44
2022-10-01T10:40:24.596Z,99808.31
2022-10-01T10:42:59.258Z,99818.50
2022-10-01T10:45:34.010Z,99810.94
2022-10-01T10:48:06.063Z,99815.72
2022-10-01T10:50:38.370Z,99817.56
2022-10-01T10:53:22.485Z,99822.00
2022-10-01T10:55:56.383Z,99818.06
2022-10-01T10:58:29.728Z,99819.72
2022-10-01T11:01:02.043Z,99827.25
2022-10-01T11:03:33.500Z,99808.44
2022-10-01T11:06:11.362Z,99816.50
2022-10-01T11:08:42.933Z,99811.91
2022-10-01T11:11:32.318Z,99808.53
2022-10-01T11:14:21.380Z,99808.53
2022-10-01T11:17:15.269Z,99817.94
2022-10-01T11:20:04.040Z,99810.09
2022-10-01T11:22:48.087Z,99818.00
2022-10-01T11:25:30.480Z,99819.25
2022-10-01T11:28:10.164Z,99820.63
2022-10-01T11:30:51.866Z,99820.59
2022-10-01T11:33:30.256Z,99820.63
2022-10-01T11:36:07.945Z,99826.38
2022-10-01T11:38:48.022Z,99819.25
2022-10-01T11:41:31.749Z,99825.00
2022-10-01T11:44:07.178Z,99831.94
2022-10-01T11:46:53.427Z,99824.47
2022-10-01T11:49:45.808Z,99828.47
2022-10-01T11:52:23.533Z,99823.06
2022-10-01T11:55:22.598Z,99829.31
2022-10-01T11:58:15.478Z,99820.44
2022-10-01T12:00:53.228Z,99826.09
2022-10-01T12:03:30.226Z,99821.38
2022-10-01T12:06:00.459Z,99825.91
2022-10-01T12:08:33.483Z,99818.53
2022-10-01T12:11:11.704Z,99821.03
2022-10-01T12:13:45.392Z,99822.84
2022-10-01T12:16:19.576Z,99821.31
2022-10-01T12:18:57.217Z,99825.91
2022-10-01T12:21:30.465Z,99827.47
2022-10-01T12:24:05.261Z,99813.44
2022-10-01T12:26:44.354Z,99819.88
2022-10-01T12:29:19.317Z,99814.47
2022-10-01T12:32:02.018Z,99803.56
2022-10-01T12:34:53.186Z,99812.22
2022-10-01T12:37:36.397Z,99820.47
2022-10-01T12:40:19.097Z,99825.94
2022-10-01T12:43:04.529Z,99831.16
2022-10-01T12:45:46.285Z,99825.03
2022-10-01T12:48:25.876Z,99827.78
2022-10-01T12:51:12.147Z,99833.56
2022-10-01T12:53:49.101Z,99839.69
2022-10-01T12:56:27.587Z,99841.41
2022-10-01T12:59:20.661Z,99833.78
2022-10-01T13:02:04.289Z,99837.25
2022-10-01T13:04:56.956Z,99834.09
2022-10-01T13:07:46.765Z,99828.56
2022-10-01T13:10:29.589Z,99843.22
2022-10-01T13:13:04.279Z,99867.91
2022-10-01T13:15:37.652Z,99868.91
2022-10-01T13:18:21.895Z,99880.38
2022-10-01T13:20:56.348Z,99899.66
2022-10-01T13:23:34.260Z,99907.25
2022-10-01T13:26:10.174Z,99937.69
2022-10-01T13:29:01.811Z,99937.56
2022-10-01T13:31:37.950Z,99952.81
2022-10-01T13:34:39.289Z,99953.19
2022-10-01T13:37:16.478Z,99957.28
2022-10-01T13:39:48.416Z,99958.41
2022-10-01T13:42:26.054Z,99962.19
2022-10-01T13:44:58.212Z,99954.00
2022-10-01T13:47:28.476Z,99950.03
2022-10-01T13:50:00.345Z,99958.44
2022-10-01T13:52:29.773Z,99959.59
2022-10-01T13:55:02.130Z,99967.31
2022-10-01T13:57:34.912Z,99961.47
2022-10-01T14:00:21.604Z,99948.06
2022-10-01T14:03:04.229Z,99958.09
2022-10-01T14:05:38.731Z,99945.31
2022-10-01T14:08:19.213Z,99959.28
2022-10-01T14:11:15.795Z,99951.84
2022-10-01T14:14:05.075Z,99957.81
2022-10-01T14:16:40.427Z,99962.56
2022-10-01T14:19:10.186Z,99969.03
2022-10-01T14:21:50.093Z,99972.63
2022-10-01T14:24:27.456Z,99968.34
2022-10-01T14:27:03.436Z,99978.41
2022-10-01T14:29:49.937Z,99985.81
2022-10-01T14:32:32.408Z,99977.56
2022-10-01T14:35:20.866Z,99984.22
2022-10-01T14:37:50.881Z,99990.19
2022-10-01T14:40:21.811Z,99991.72
2022-10-01T14:43:02.528Z,99997.56
2022-10-01T14:45:31.680Z,99993.00
2022-10-01T14:48:04.994Z,100002.00
2022-10-01T14:50:36.049Z,99996.59
2022-10-01T14:53:06.312Z,100001.31
2022-10-01T14:55:36.794Z,100001.34
2022-10-01T14:58:07.304Z,100004.91
2022-10-01T15:00:36.522Z,100013.31
2022-10-01T15:03:15.313Z,100017.69
2022-10-01T15:05:46.236Z,100020.72
2022-10-01T15:08:16.725Z,100020.63
2022-10-01T15:10:50.770Z,100017.50
2022-10-01T15:13:24.936Z,100032.78
2022-10-01T15:15:55.294Z,100031.19
2022-10-01T15:18:25.615Z,100026.50
2022-10-01T15:20:57.526Z,100023.50
2022-10-01T15:23:29.088Z,100025.31
2022-10-01T15:26:01.580Z,100030.31
2022-10-01T15:28:34.357Z,100033.28
2022-10-01T15:31:05.901Z,100041.69
2022-10-01T15:33:37.340Z,100035.63
2022-10-01T15:36:09.512Z,100042.34
2022-10-01T15:38:40.002Z,100045.47
2022-10-01T15:41:31.121Z,100045.97
2022-10-01T15:44:06.853Z,100049.28
2022-10-01T15:46:38.312Z,100050.75
2022-10-01T15:49:26.001Z,100052.56
2022-10-01T15:52:17.872Z,100061.28
2022-10-01T15:54:48.914Z,100063.41
2022-10-01T15:57:22.408Z,100058.63
2022-10-01T15:59:56.337Z,100069.00
2022-10-01T16:02:31.652Z,100074.91
2022-10-01T16:05:07.138Z,100082.19
2022-10-01T16:07:37.978Z,100094.69
2022-10-01T16:10:23.624Z,100102.28
2022-10-01T16:12:53.700Z,100102.94
2022-10-01T16:15:30.579Z,100102.78
2022-10-01T16:18:02.627Z,100112.00
2022-10-01T16:20:45.646Z,100113.94
2022-10-01T16:23:49.525Z,100109.19
2022-10-01T16:26:40.025Z,100119.56
2022-10-01T16:29:25.367Z,100126.97
2022-10-01T16:31:57.758Z,100141.28
2022-10-01T16:34:28.421Z,100136.00
2022-10-01T16:36:58.142Z,100148.19
2022-10-01T16:39:27.271Z,100153.63
2022-10-01T16:42:19.008Z,100166.81
2022-10-01T16:44:45.585Z,100164.78
2022-10-01T16:47:16.027Z,100168.19
2022-10-01T16:49:46.969Z,100176.56
2022-10-01T16:52:17.633Z,100180.19
2022-10-01T16:54:47.465Z,100184.13
2022-10-01T16:57:16.982Z,100187.19
2022-10-01T16:59:46.234Z,100192.44
2022-10-01T17:02:23.058Z,100200.59
2022-10-01T17:04:56.779Z,100207.13
2022-10-01T17:07:26.102Z,100217.59
2022-10-01T17:09:57.870Z,100213.25
2022-10-01T17:12:27.067Z,100222.59
2022-10-01T17:14:56.413Z,100231.28
2022-10-01T17:17:26.965Z,100233.56
2022-10-01T17:19:56.471Z,100230.72
2022-10-01T17:22:25.571Z,100240.06
2022-10-01T17:24:57.495Z,100242.66
2022-10-01T17:27:26.561Z,100247.63
2022-10-01T17:29:57.493Z,100263.16
2022-10-01T17:32:27.791Z,100258.53
2022-10-01T17:34:56.704Z,100262.63
2022-10-01T17:37:25.940Z,100273.16
2022-10-01T17:39:54.915Z,100269.16
2022-10-01T17:42:24.287Z,100280.00
2022-10-01T17:44:54.606Z,100285.69
2022-10-01T17:47:23.741Z,100284.63
2022-10-01T17:49:57.293Z,100291.06
2022-10-01T17:52:28.286Z,100309.25
2022-10-01T17:54:57.395Z,100311.91
2022-10-01T17:57:26.418Z,100316.28
2022-10-01T17:59:55.506Z,100323.50
2022-10-01T18:02:41.054Z,100326.41
2022-10-01T18:05:14.840Z,100339.00
2022-10-01T18:07:45.302Z,100336.59
2022-10-01T18:10:17.163Z,100341.97
2022-10-01T18:12:46.464Z,100350.00
2022-10-01T18:15:15.558Z,100354.44
2022-10-01T18:17:51.525Z,100357.91
2022-10-01T18:20:23.558Z,100361.63
2022-10-01T18:22:53.440Z,100372.03
2022-10-01T18:25:22.502Z,100365.59
2022-10-01T18:27:51.560Z,100366.91
2022-10-01T18:30:20.918Z,100384.88
2022-10-01T18:32:56.740Z,100377.31
2022-10-01T18:35:32.471Z,100388.66
2022-10-01T18:38:05.617Z,100377.59
2022-10-01T18:40:41.350Z,100381.91
2022-10-01T18:43:14.402Z,100389.47
2022-10-01T18:45:57.707Z,100387.81
2022-10-01T18:48:53.279Z,100399.69
2022-10-01T18:51:40.717Z,100399.31
2022-10-01T18:54:33.502Z,100401.53
2022-10-01T18:57:15.284Z,100408.03
2022-10-01T19:00:10.035Z,100402.72
2022-10-01T19:03:10.906Z,100416.88
2022-10-01T19:06:00.351Z,100424.00
2022-10-01T19:08:42.582Z,100425.34
2022-10-01T19:11:18.923Z,100426.56
2022-10-01T19:13:56.325Z,100436.97
2022-10-01T19:16:41.070Z,100439.03
2022-10-01T19:19:31.125Z,100443.03
2022-10-01T19:22:03.689Z,100442.06
2022-10-01T19:25:05.795Z,100445.28
2022-10-01T19:27:47.382Z,100446.31
2022-10-01T19:30:21.498Z,100457.56
2022-10-01T19:32:59.181Z,100462.94
2022-10-01T19:35:33.551Z,100460.06
2022-10-01T19:38:06.677Z,100457.81
2022-10-01T19:40:41.862Z,100466.97
2022-10-01T19:43:18.567Z,100466.28
2022-10-01T19:45:55.178Z,100470.84
2022-10-01T19:48:31.760Z,100475.25
2022-10-01T19:51:10.251Z,100467.69
2022-10-01T19:53:43.433Z,100480.56
2022-10-01T19:56:21.467Z,100481.94
2022-10-01T19:58:50.581Z,100489.63
2022-10-01T20:01:24.225Z,100488.13
2022-10-01T20:04:01.447Z,100493.81
2022-10-01T20:06:34.787Z,100497.56
2022-10-01T20:09:12.019Z,100493.41
2022-10-01T20:11:48.313Z,100497.97
2022-10-01T20:14:55.696Z,100507.25
2022-10-01T20:17:32.655Z,100520.66
2022-10-01T20:20:14.715Z,100515.59
2022-10-01T20:22:59.390Z,100516.53
2022-10-01T20:25:40.518Z,100530.22
2022-10-01T20:28:24.760Z,100532.72
2022-10-01T20:31:01.456Z,100534.66
2022-10-01T20:33:42.955Z,100534.63
2022-10-01T20:36:19.750Z,100551.09
2022-10-01T20:38:54.946Z,100542.66
2022-10-01T20:41:26.149Z,100545.41
2022-10-01T20:44:05.652Z,100554.94
2022-10-01T20:46:38.505Z,100554.63
2022-10-01T20:49:23.100Z,100568.19
2022-10-01T20:52:00.396Z,100563.22
2022-10-01T20:54:36.100Z,100566.53
2022-10-01T20:57:11.134Z,100575.13
2022-10-01T20:59:46.274Z,100572.09
2022-10-01T21:02:29.624Z,100571.25
2022-10-01T21:05:05.550Z,100578.56
2022-10-01T21:07:40.423Z,100592.25
2022-10-01T21:10:22.076Z,100584.38
2022-10-01T21:13:03.004Z,100600.81
2022-10-01T21:15:46.403Z,100593.22
2022-10-01T21:18:27.301Z,100602.19
2022-10-01T21:21:07.951Z,100601.78
2022-10-01T21:24:01.042Z,100610.09
2022-10-01T21:26:43.355Z,100613.78
2022-10-01T21:29:46.431Z,100618.50
2022-10-01T21:32:33.371Z,100622.09
2022-10-01T21:35:15.530Z,100638.28
2022-10-01T21:38:01.160Z,100654.28
2022-10-01T21:40:41.262Z,100652.91
2022-10-01T21:43:23.065Z,100660.50
2022-10-01T21:46:01.300Z,100656.66
2022-10-01T21:48:41.394Z,100661.91
2022-10-01T21:51:18.352Z,100669.34
2022-10-01T21:54:38.823Z,100675.97
2022-10-01T21:57:23.821Z,100681.63
2022-10-01T22:00:18.889Z,100683.28
2022-10-01T22:03:04.461Z,100664.75
2022-10-01T22:05:41.553Z,100668.06
2022-10-01T22:08:23.218Z,100670.41
2022-10-01T22:10:55.472Z,100671.09
2022-10-01T22:13:27.978Z,100659.38
2022-10-01T22:16:00.209Z,100661.97
2022-10-01T22:18:37.901Z,100675.34
2022-10-01T22:21:12.166Z,100678.25
2022-10-01T22:23:47.805Z,100684.44
2022-10-01T22:26:19.240Z,100691.88
2022-10-01T22:28:51.417Z,100685.25
2022-10-01T22:31:26.893Z,100693.56
2022-10-01T22:33:59.365Z,100695.34
2022-10-01T22:36:36.337Z,100698.69
2022-10-01T22:39:12.095Z,100699.91
2022-10-01T22:41:46.120Z,100706.53
2022-10-01T22:44:17.235Z,100701.84
2022-10-01T22:47:10.554Z,100700.22
2022-10-01T22:49:52.339Z,100708.50
2022-10-01T22:52:32.319Z,100712.78
2022-10-01T22:55:15.662Z,100715.25
2022-10-01T22:58:14.416Z,100705.31
2022-10-01T23:00:52.284Z,100705.44
2022-10-01T23:03:32.741Z,100710.28
2022-10-01T23:06:07.139Z,100705.00
2022-10-01T23:08:45.702Z,100698.34
2022-10-01T23:11:24.241Z,100704.81
2022-10-01T23:14:01.470Z,100708.38
2022-10-01T23:16:40.429Z,100711.97
2022-10-01T23:19:29.952Z,100716.91
2022-10-01T23:22:06.758Z,100712.22
2022-10-01T23:24:52.561Z,100716.53
2022-10-01T23:27:34.574Z,100708.94
2022-10-01T23:30:11.891Z,100715.69
2022-10-01T23:33:01.785Z,100714.56
2022-10-01T23:35:41.953Z,100715.00
2022-10-01T23:38:36.730Z,100717.31
2022-10-01T23:41:15.931Z,100725.69
2022-10-01T23:43:48.178Z,100724.97
2022-10-01T23:46:22.904Z,100727.75
2022-10-01T23:48:58.623Z,100730.00
2022-10-01T23:51:33.748Z,100730.16
2022-10-01T23:54:12.499Z,100737.38
2022-10-01T23:56:50.291Z,100743.00
2022-10-01T23:59:28.656Z,100739.53
